createdAt,value
2023-05-10T00:00:29.498Z,50.20
2023-05-10T00:01:29.552Z,56.53
2023-05-10T00:02:29.708Z,53.15
2023-05-10T00:03:29.700Z,54.44
2023-05-10T00:04:29.645Z,53.68
2023-05-10T00:05:29.629Z,54.55
2023-05-10T00:06:29.687Z,53.91
2023-05-10T00:07:29.714Z,55.01
2023-05-10T00:08:29.725Z,52.97
2023-05-10T00:09:29.741Z,52.25
2023-05-10T00:10:29.769Z,50.84
2023-05-10T00:11:29.843Z,56.54
2023-05-10T00:12:29.813Z,54.32
2023-05-10T00:13:29.957Z,55.38
2023-05-10T00:14:29.905Z,53.18
2023-05-10T00:15:29.916Z,51.33
2023-05-10T00:16:29.996Z,53.75
2023-05-10T00:17:30.019Z,54.09
2023-05-10T00:18:30.047Z,54.86
2023-05-10T00:19:30.053Z,53.00
2023-05-10T00:20:30.131Z,49.75
2023-05-10T00:21:30.155Z,54.15
2023-05-10T00:22:30.154Z,54.04
2023-05-10T00:23:30.555Z,52.34
2023-05-10T00:24:30.154Z,53.83
2023-05-10T00:25:30.164Z,53.36
2023-05-10T00:26:30.194Z,52.72
2023-05-10T00:27:30.205Z,50.98
2023-05-10T00:28:30.253Z,50.42
2023-05-10T00:29:30.272Z,50.41
2023-05-10T00:30:30.302Z,50.66
2023-05-10T00:31:30.355Z,55.63
2023-05-10T00:32:30.384Z,52.01
2023-05-10T00:33:30.396Z,54.03
2023-05-10T00:34:30.392Z,51.45
2023-05-10T00:35:30.480Z,50.69
2023-05-10T00:36:30.531Z,51.17
2023-05-10T00:37:30.523Z,52.75
2023-05-10T00:38:30.551Z,50.41
2023-05-10T00:39:30.603Z,52.37
2023-05-10T00:40:30.611Z,50.93
2023-05-10T00:41:30.657Z,49.74
2023-05-10T00:42:30.678Z,50.03
2023-05-10T00:43:30.669Z,51.66
2023-05-10T00:44:30.662Z,48.57
2023-05-10T00:45:30.691Z,51.15
2023-05-10T00:46:30.844Z,49.15
2023-05-10T00:47:30.777Z,50.72
2023-05-10T00:48:30.767Z,49.99
2023-05-10T00:49:30.772Z,47.82
2023-05-10T00:50:30.753Z,47.76
2023-05-10T00:51:30.747Z,46.58
2023-05-10T00:52:30.763Z,49.22
2023-05-10T00:53:31.059Z,49.37
2023-05-10T00:54:30.824Z,48.22
2023-05-10T00:55:30.811Z,47.79
2023-05-10T00:56:30.908Z,47.55
2023-05-10T00:57:30.818Z,50.93
2023-05-10T00:58:30.847Z,48.61
2023-05-10T00:59:30.847Z,47.96
2023-05-10T01:00:30.857Z,46.83
2023-05-10T01:01:30.869Z,45.72
2023-05-10T01:02:30.948Z,47.91
2023-05-10T01:03:30.932Z,48.94
2023-05-10T01:04:30.908Z,47.82
2023-05-10T01:05:30.885Z,49.49
2023-05-10T01:06:31.588Z,47.48
2023-05-10T01:07:30.897Z,47.81
2023-05-10T01:08:30.906Z,46.73
2023-05-10T01:09:30.925Z,47.78
2023-05-10T01:10:30.926Z,45.13
2023-05-10T01:11:30.930Z,47.76
2023-05-10T01:12:30.966Z,46.47
2023-05-10T01:13:31.084Z,47.41
2023-05-10T01:14:30.984Z,45.54
2023-05-10T01:15:31.014Z,46.74
2023-05-10T01:16:31.056Z,45.76
2023-05-10T01:17:31.017Z,47.29
2023-05-10T01:18:31.003Z,43.97
2023-05-10T01:19:30.977Z,46.01
2023-05-10T01:20:31.021Z,45.57
2023-05-10T01:21:31.006Z,44.38
2023-05-10T01:22:31.021Z,45.66
2023-05-10T01:23:31.082Z,46.66
2023-05-10T01:24:31.019Z,43.85
2023-05-10T01:25:31.055Z,45.63
2023-05-10T01:26:31.083Z,44.28
2023-05-10T01:27:31.096Z,47.05
2023-05-10T01:28:31.567Z,44.91
2023-05-10T01:29:31.121Z,43.62
2023-05-10T01:30:31.142Z,45.65
2023-05-10T01:31:31.204Z,45.61
2023-05-10T01:32:31.171Z,44.71
2023-05-10T01:33:31.602Z,45.60
2023-05-10T01:34:31.217Z,43.09
2023-05-10T01:35:31.250Z,45.06
2023-05-10T01:36:31.265Z,47.54
2023-05-10T01:37:31.268Z,44.67
2023-05-10T01:38:31.575Z,47.76
2023-05-10T01:39:31.307Z,47.91
2023-05-10T01:40:31.294Z,46.83
2023-05-10T01:41:31.291Z,46.33
2023-05-10T01:42:31.311Z,43.45
2023-05-10T01:43:31.599Z,46.07
2023-05-10T01:44:31.309Z,46.02
2023-05-10T01:45:31.324Z,44.77
2023-05-10T01:46:31.371Z,43.61
2023-05-10T01:47:31.372Z,43.95
2023-05-10T01:48:31.397Z,43.10
2023-05-10T01:49:31.357Z,45.83
2023-05-10T01:50:31.387Z,47.19
2023-05-10T01:51:31.377Z,45.95
2023-05-10T01:52:31.426Z,43.98
2023-05-10T01:53:31.393Z,41.85
2023-05-10T01:54:31.412Z,45.25
2023-05-10T01:55:31.436Z,45.44
2023-05-10T01:56:31.376Z,45.07
2023-05-10T01:57:31.380Z,44.53
2023-05-10T01:58:31.393Z,44.52
2023-05-10T01:59:31.413Z,44.97
2023-05-10T02:00:31.427Z,44.51
2023-05-10T02:01:31.379Z,42.91
2023-05-10T02:02:31.393Z,44.23
2023-05-10T02:03:31.414Z,42.99
2023-05-10T02:04:31.411Z,43.31
2023-05-10T02:05:31.369Z,40.98
2023-05-10T02:06:31.359Z,43.43
2023-05-10T02:07:31.409Z,43.66
2023-05-10T02:08:31.408Z,43.50
2023-05-10T02:09:31.404Z,44.83
2023-05-10T02:10:31.393Z,40.43
2023-05-10T02:11:31.379Z,44.58
2023-05-10T02:12:31.393Z,43.98
2023-05-10T02:13:31.674Z,41.13
2023-05-10T02:14:31.382Z,40.70
2023-05-10T02:15:31.394Z,42.68
2023-05-10T02:16:31.434Z,40.13
2023-05-10T02:17:31.428Z,39.39
2023-05-10T02:18:31.356Z,43.23
2023-05-10T02:19:31.407Z,43.03
2023-05-10T02:20:31.336Z,43.62
2023-05-10T02:21:31.368Z,41.15
2023-05-10T02:22:31.378Z,39.41
2023-05-10T02:23:31.352Z,40.78
2023-05-10T02:24:31.343Z,40.92
2023-05-10T02:25:31.328Z,36.80
2023-05-10T02:26:31.357Z,40.40
2023-05-10T02:27:31.366Z,41.21
2023-05-10T02:28:31.347Z,41.16
2023-05-10T02:29:31.316Z,44.26
2023-05-10T02:30:31.325Z,41.29
2023-05-10T02:31:31.335Z,42.34
2023-05-10T02:32:31.340Z,43.83
2023-05-10T02:33:31.313Z,41.63
2023-05-10T02:34:31.321Z,41.34
2023-05-10T02:35:31.294Z,40.05
2023-05-10T02:36:31.293Z,40.98
2023-05-10T02:37:31.345Z,40.51
2023-05-10T02:38:31.302Z,41.65
2023-05-10T02:39:31.268Z,39.68
2023-05-10T02:40:31.304Z,39.99
2023-05-10T02:41:31.248Z,42.21
2023-05-10T02:42:31.256Z,42.56
2023-05-10T02:43:31.282Z,40.95
2023-05-10T02:44:31.586Z,41.36
2023-05-10T02:45:31.282Z,42.39
2023-05-10T02:46:31.296Z,40.57
2023-05-10T02:47:31.298Z,41.34
2023-05-10T02:48:31.236Z,40.08
2023-05-10T02:49:31.652Z,40.69
2023-05-10T02:50:31.227Z,40.79
2023-05-10T02:51:31.241Z,42.42
2023-05-10T02:52:31.227Z,40.08
2023-05-10T02:53:31.245Z,42.35
2023-05-10T02:54:31.608Z,41.05
2023-05-10T02:55:31.228Z,38.70
2023-05-10T02:56:31.208Z,41.14
2023-05-10T02:57:31.193Z,40.30
2023-05-10T02:58:31.216Z,37.76
2023-05-10T02:59:31.613Z,40.27
2023-05-10T03:00:31.188Z,39.27
2023-05-10T03:01:31.275Z,40.49
2023-05-10T03:02:31.224Z,38.88
2023-05-10T03:03:31.218Z,39.38
2023-05-10T03:04:31.686Z,39.98
2023-05-10T03:05:31.168Z,41.45
2023-05-10T03:06:31.206Z,39.40
2023-05-10T03:07:31.182Z,40.26
2023-05-10T03:08:31.190Z,38.52
2023-05-10T03:09:31.607Z,40.30
2023-05-10T03:10:31.154Z,39.07
2023-05-10T03:11:31.165Z,41.28
2023-05-10T03:12:31.178Z,43.38
2023-05-10T03:13:31.213Z,38.75
2023-05-10T03:14:31.610Z,40.19
2023-05-10T03:15:31.131Z,38.14
2023-05-10T03:16:31.173Z,39.80
2023-05-10T03:17:31.222Z,38.98
2023-05-10T03:18:31.123Z,38.62
2023-05-10T03:19:31.610Z,40.29
2023-05-10T03:20:31.147Z,41.02
2023-05-10T03:21:31.102Z,38.94
2023-05-10T03:22:31.144Z,39.31
2023-05-10T03:23:31.151Z,37.35
2023-05-10T03:24:31.120Z,41.83
2023-05-10T03:25:31.111Z,39.83
2023-05-10T03:26:31.136Z,38.12
2023-05-10T03:27:31.116Z,39.82
2023-05-10T03:28:31.112Z,39.78
2023-05-10T03:29:31.127Z,38.61
2023-05-10T03:30:31.101Z,40.15
2023-05-10T03:31:31.154Z,35.62
2023-05-10T03:32:31.135Z,38.15
2023-05-10T03:33:31.073Z,38.27
2023-05-10T03:34:31.103Z,39.94
2023-05-10T03:35:31.077Z,37.58
2023-05-10T03:36:31.057Z,37.82
2023-05-10T03:37:31.085Z,36.97
2023-05-10T03:38:31.059Z,39.99
2023-05-10T03:39:31.047Z,35.58
2023-05-10T03:40:31.034Z,39.69
2023-05-10T03:41:31.071Z,38.35
2023-05-10T03:42:31.021Z,37.80
2023-05-10T03:43:31.076Z,38.32
2023-05-10T03:44:31.011Z,38.67
2023-05-10T03:45:31.036Z,39.86
2023-05-10T03:46:31.043Z,39.84
2023-05-10T03:47:31.067Z,38.44
2023-05-10T03:48:31.024Z,37.15
2023-05-10T03:49:31.132Z,38.07
2023-05-10T03:50:30.995Z,39.08
2023-05-10T03:51:31.000Z,39.02
2023-05-10T03:52:31.053Z,39.51
2023-05-10T03:53:31.010Z,36.24
2023-05-10T03:54:31.143Z,38.15
2023-05-10T03:55:31.014Z,35.53
2023-05-10T03:56:31.029Z,36.49
2023-05-10T03:57:30.989Z,35.67
2023-05-10T03:58:30.980Z,39.25
2023-05-10T03:59:30.994Z,38.65
2023-05-10T04:00:30.952Z,36.76
2023-05-10T04:01:30.947Z,38.01
2023-05-10T04:02:31.099Z,35.24
2023-05-10T04:03:31.034Z,35.24
2023-05-10T04:04:30.953Z,34.53
2023-05-10T04:05:30.959Z,36.74
2023-05-10T04:06:30.935Z,35.49
2023-05-10T04:07:30.930Z,36.34
2023-05-10T04:08:30.950Z,34.10
2023-05-10T04:09:30.933Z,37.63
2023-05-10T04:10:30.929Z,36.78
2023-05-10T04:11:30.907Z,37.37
2023-05-10T04:12:30.886Z,34.78
2023-05-10T04:13:30.886Z,34.45
2023-05-10T04:14:30.900Z,36.61
2023-05-10T04:15:30.915Z,33.32
2023-05-10T04:16:30.907Z,35.23
2023-05-10T04:17:30.992Z,34.17
2023-05-10T04:18:30.861Z,35.25
2023-05-10T04:19:30.877Z,35.30
2023-05-10T04:20:30.881Z,34.77
2023-05-10T04:21:30.835Z,35.45
2023-05-10T04:22:30.847Z,35.11
2023-05-10T04:23:30.835Z,36.11
2023-05-10T04:24:31.155Z,34.09
2023-05-10T04:25:30.830Z,36.94
2023-05-10T04:26:30.832Z,36.06
2023-05-10T04:27:30.903Z,36.11
2023-05-10T04:28:30.868Z,35.28
2023-05-10T04:29:30.828Z,36.87
2023-05-10T04:30:30.833Z,37.00
2023-05-10T04:31:30.824Z,36.20
2023-05-10T04:32:30.840Z,36.42
2023-05-10T04:33:30.780Z,33.31
2023-05-10T04:34:30.835Z,34.00
2023-05-10T04:35:30.810Z,34.95
2023-05-10T04:36:30.822Z,31.99
2023-05-10T04:37:30.792Z,34.32
2023-05-10T04:38:30.804Z,32.17
2023-05-10T04:39:30.780Z,31.92
2023-05-10T04:40:30.780Z,33.02
2023-05-10T04:41:30.790Z,30.94
2023-05-10T04:42:30.744Z,33.76
2023-05-10T04:43:30.764Z,32.10
2023-05-10T04:44:30.764Z,34.43
2023-05-10T04:45:30.808Z,32.52
2023-05-10T04:46:30.794Z,36.60
2023-05-10T04:47:30.829Z,34.50
2023-05-10T04:48:30.787Z,33.67
2023-05-10T04:49:31.153Z,33.01
2023-05-10T04:50:30.736Z,33.10
2023-05-10T04:51:30.782Z,33.20
2023-05-10T04:52:30.767Z,33.75
2023-05-10T04:53:30.765Z,34.20
2023-05-10T04:54:30.780Z,32.01
2023-05-10T04:55:30.772Z,31.39
2023-05-10T04:56:30.780Z,32.25
2023-05-10T04:57:30.735Z,34.79
2023-05-10T04:58:30.745Z,30.40
2023-05-10T04:59:30.767Z,30.32
2023-05-10T05:00:30.746Z,33.48
2023-05-10T05:01:30.818Z,29.54
2023-05-10T05:02:30.914Z,29.98
2023-05-10T05:03:30.815Z,32.02
2023-05-10T05:04:31.153Z,31.37
2023-05-10T05:05:30.742Z,29.83
2023-05-10T05:06:30.763Z,29.71
2023-05-10T05:07:30.764Z,29.33
2023-05-10T05:08:30.732Z,31.93
2023-05-10T05:09:30.740Z,31.65
2023-05-10T05:10:30.762Z,30.09
2023-05-10T05:11:30.713Z,31.82
2023-05-10T05:12:30.718Z,32.65
2023-05-10T05:13:30.749Z,31.48
2023-05-10T05:14:30.712Z,29.57
2023-05-10T05:15:30.706Z,29.29
2023-05-10T05:16:30.742Z,28.36
2023-05-10T05:17:30.738Z,31.42
2023-05-10T05:18:30.686Z,32.06
2023-05-10T05:19:30.743Z,29.80
2023-05-10T05:20:30.690Z,30.67
2023-05-10T05:21:30.680Z,29.39
2023-05-10T05:22:30.682Z,28.46
2023-05-10T05:23:30.705Z,29.84
2023-05-10T05:24:30.695Z,31.01
2023-05-10T05:25:30.679Z,30.22
2023-05-10T05:26:30.690Z,33.54
2023-05-10T05:27:30.697Z,32.14
2023-05-10T05:28:30.680Z,30.17
2023-05-10T05:29:30.658Z,28.61
2023-05-10T05:30:30.703Z,29.53
2023-05-10T05:31:30.700Z,31.21
2023-05-10T05:32:30.698Z,30.05
2023-05-10T05:33:30.688Z,30.52
2023-05-10T05:34:30.677Z,31.42
2023-05-10T05:35:30.681Z,29.48
2023-05-10T05:36:30.693Z,29.43
2023-05-10T05:37:30.690Z,27.21
2023-05-10T05:38:30.709Z,27.66
2023-05-10T05:39:30.702Z,29.73
2023-05-10T05:40:30.681Z,28.51
2023-05-10T05:41:30.681Z,31.80
2023-05-10T05:42:30.652Z,31.37
2023-05-10T05:43:30.731Z,28.97
2023-05-10T05:44:31.135Z,30.48
2023-05-10T05:45:30.744Z,30.89
2023-05-10T05:46:30.654Z,28.83
2023-05-10T05:47:30.696Z,27.64
2023-05-10T05:48:30.674Z,33.13
2023-05-10T05:49:30.681Z,31.47
2023-05-10T05:50:30.653Z,28.65
2023-05-10T05:51:30.662Z,30.58
2023-05-10T05:52:30.637Z,28.39
2023-05-10T05:53:30.649Z,26.30
2023-05-10T05:54:30.681Z,30.04
2023-05-10T05:55:30.668Z,29.51
2023-05-10T05:56:30.665Z,30.78
2023-05-10T05:57:30.664Z,28.33
2023-05-10T05:58:30.700Z,29.72
2023-05-10T05:59:30.639Z,30.68
2023-05-10T06:00:30.643Z,29.12
2023-05-10T06:01:30.662Z,30.99
2023-05-10T06:02:30.793Z,31.19
2023-05-10T06:03:30.815Z,27.87
2023-05-10T06:04:30.669Z,32.33
2023-05-10T06:05:30.674Z,31.10
2023-05-10T06:06:30.661Z,32.73
2023-05-10T06:07:30.633Z,36.21
2023-05-10T06:08:30.653Z,27.85
2023-05-10T06:09:30.647Z,35.02
2023-05-10T06:10:30.604Z,34.80
2023-05-10T06:11:30.616Z,39.09
2023-05-10T06:12:30.634Z,41.09
2023-05-10T06:13:30.691Z,43.87
2023-05-10T06:14:30.661Z,38.68
2023-05-10T06:15:30.643Z,31.07
2023-05-10T06:16:30.642Z,39.15
2023-05-10T06:17:30.681Z,39.22
2023-05-10T06:18:30.671Z,43.93
2023-05-10T06:19:30.767Z,44.45
2023-05-10T06:20:30.766Z,48.36
2023-05-10T06:21:30.812Z,49.50
2023-05-10T06:22:30.864Z,44.26
2023-05-10T06:23:30.896Z,48.98
2023-05-10T06:24:31.186Z,49.55
2023-05-10T06:25:31.013Z,49.96
2023-05-10T06:26:31.055Z,46.58
2023-05-10T06:27:31.167Z,50.81
2023-05-10T06:28:31.229Z,47.24
2023-05-10T06:29:31.679Z,48.69
2023-05-10T06:30:31.338Z,48.99
2023-05-10T06:31:31.420Z,50.01
2023-05-10T06:32:31.509Z,51.32
2023-05-10T06:33:31.529Z,52.76
2023-05-10T06:34:31.676Z,52.62
2023-05-10T06:35:31.626Z,54.26
2023-05-10T06:36:31.698Z,51.63
2023-05-10T06:37:31.752Z,50.48
2023-05-10T06:38:31.800Z,52.53
2023-05-10T06:39:31.923Z,54.65
2023-05-10T06:40:31.974Z,55.55
2023-05-10T06:41:32.036Z,55.31
2023-05-10T06:42:32.047Z,55.74
2023-05-10T06:43:32.131Z,55.97
2023-05-10T06:44:32.164Z,54.31
2023-05-10T06:45:32.234Z,57.94
2023-05-10T06:46:32.327Z,56.85
2023-05-10T06:47:32.373Z,54.58
2023-05-10T06:48:32.350Z,57.73
2023-05-10T06:49:32.435Z,56.79
2023-05-10T06:50:32.504Z,56.17
2023-05-10T06:51:32.514Z,58.74
2023-05-10T06:52:32.594Z,54.97
2023-05-10T06:53:32.594Z,52.42
2023-05-10T06:54:32.676Z,54.23
2023-05-10T06:55:32.724Z,51.80
2023-05-10T06:56:32.790Z,53.93
2023-05-10T06:57:32.829Z,57.95
2023-05-10T06:58:32.838Z,56.48
2023-05-10T06:59:32.936Z,54.13
2023-05-10T07:00:32.977Z,57.10
2023-05-10T07:01:33.029Z,61.61
2023-05-10T07:02:33.158Z,54.92
2023-05-10T07:03:33.092Z,54.15
2023-05-10T07:04:33.188Z,56.54
2023-05-10T07:05:33.413Z,55.28
2023-05-10T07:06:33.919Z,55.85
2023-05-10T07:07:33.300Z,57.27
2023-05-10T07:08:33.330Z,58.92
2023-05-10T07:09:33.448Z,58.81
2023-05-10T07:10:33.398Z,58.99
2023-05-10T07:11:33.437Z,56.02
2023-05-10T07:12:33.536Z,60.36
2023-05-10T07:13:33.563Z,57.68
2023-05-10T07:14:33.672Z,61.59
2023-05-10T07:15:33.645Z,59.75
2023-05-10T07:16:33.683Z,59.84
2023-05-10T07:17:33.716Z,62.30
2023-05-10T07:18:33.757Z,59.36
2023-05-10T07:19:33.793Z,57.24
2023-05-10T07:20:33.813Z,58.72
2023-05-10T07:21:33.954Z,59.95
2023-05-10T07:22:33.907Z,57.08
2023-05-10T07:23:33.951Z,58.18
2023-05-10T07:24:34.202Z,58.38
2023-05-10T07:25:34.033Z,59.97
2023-05-10T07:26:34.022Z,58.74
2023-05-10T07:27:34.061Z,53.04
2023-05-10T07:28:34.126Z,45.59
2023-05-10T07:29:34.214Z,46.80
2023-05-10T07:30:34.283Z,31.72
2023-05-10T07:31:34.232Z,42.93
2023-05-10T07:32:34.286Z,38.95
2023-05-10T07:33:34.328Z,32.25
2023-05-10T07:34:34.358Z,42.04
2023-05-10T07:35:34.395Z,47.27
2023-05-10T07:36:34.444Z,51.25
2023-05-10T07:37:34.462Z,51.68
2023-05-10T07:38:34.519Z,53.44
2023-05-10T07:39:34.574Z,53.58
2023-05-10T07:40:34.602Z,53.28
2023-05-10T07:41:35.841Z,57.94
2023-05-10T07:42:35.243Z,58.02
2023-05-10T07:43:34.730Z,57.30
2023-05-10T07:44:35.190Z,58.20
2023-05-10T07:45:34.788Z,62.03
2023-05-10T07:46:34.849Z,59.58
2023-05-10T07:47:34.951Z,61.76
2023-05-10T07:48:34.902Z,60.44
2023-05-10T07:49:34.994Z,59.52
2023-05-10T07:50:34.986Z,60.29
2023-05-10T07:51:35.018Z,61.24
2023-05-10T07:52:35.073Z,58.68
2023-05-10T07:53:35.152Z,60.59
2023-05-10T07:54:35.215Z,59.69
2023-05-10T07:55:35.175Z,58.90
2023-05-10T07:56:35.221Z,55.66
2023-05-10T07:57:35.267Z,60.39
2023-05-10T07:58:35.289Z,60.80
2023-05-10T07:59:35.684Z,60.00
2023-05-10T08:00:35.373Z,57.17
2023-05-10T08:01:35.380Z,58.92
2023-05-10T08:02:35.573Z,60.24
2023-05-10T08:03:35.529Z,59.61
2023-05-10T08:04:35.505Z,59.96
2023-05-10T08:05:35.868Z,61.00
2023-05-10T08:06:35.577Z,64.54
2023-05-10T08:07:35.614Z,60.82
2023-05-10T08:08:35.755Z,62.05
2023-05-10T08:09:35.699Z,60.62
2023-05-10T08:10:36.231Z,53.29
2023-05-10T08:11:35.753Z,44.28
2023-05-10T08:12:35.761Z,50.70
2023-05-10T08:13:35.810Z,53.57
2023-05-10T08:14:35.830Z,59.61
2023-05-10T08:15:36.241Z,57.81
2023-05-10T08:16:35.909Z,47.39
2023-05-10T08:17:35.975Z,38.10
2023-05-10T08:18:36.044Z,50.07
2023-05-10T08:19:36.006Z,51.37
2023-05-10T08:20:36.217Z,54.81
2023-05-10T08:21:36.096Z,55.58
2023-05-10T08:22:36.154Z,57.12
2023-05-10T08:23:36.144Z,52.91
2023-05-10T08:24:36.202Z,50.98
2023-05-10T08:25:36.233Z,52.46
2023-05-10T08:26:36.257Z,52.28
2023-05-10T08:27:36.279Z,54.36
2023-05-10T08:28:36.328Z,54.63
2023-05-10T08:29:48.850Z,54.54
2023-05-10T08:30:37.794Z,54.70
2023-05-10T08:31:36.438Z,51.79
2023-05-10T08:32:36.423Z,50.76
2023-05-10T08:33:36.346Z,51.88
2023-05-10T08:34:36.310Z,51.98
2023-05-10T08:35:36.363Z,55.07
2023-05-10T08:36:36.328Z,56.07
2023-05-10T08:37:36.293Z,57.74
2023-05-10T08:38:36.296Z,58.50
2023-05-10T08:39:36.300Z,58.71
2023-05-10T08:40:36.703Z,59.30
2023-05-10T08:41:36.331Z,58.89
2023-05-10T08:42:36.379Z,61.01
2023-05-10T08:43:36.374Z,59.89
2023-05-10T08:44:36.414Z,56.80
2023-05-10T08:45:36.469Z,57.97
2023-05-10T08:46:36.561Z,58.34
2023-05-10T08:47:36.539Z,59.11
2023-05-10T08:48:36.567Z,60.07
2023-05-10T08:49:36.591Z,60.27
2023-05-10T08:50:36.600Z,61.44
2023-05-10T08:51:36.632Z,62.06
2023-05-10T08:52:36.685Z,60.90
2023-05-10T08:53:36.725Z,59.96
2023-05-10T08:54:36.770Z,61.16
2023-05-10T08:55:36.800Z,59.50
2023-05-10T08:56:36.778Z,59.25
2023-05-10T08:57:36.819Z,62.48
2023-05-10T08:58:36.859Z,62.32
2023-05-10T08:59:36.883Z,56.83
2023-05-10T09:00:37.286Z,48.63
2023-05-10T09:01:36.960Z,40.49
2023-05-10T09:02:37.012Z,36.56
2023-05-10T09:03:37.022Z,36.30
2023-05-10T09:04:37.118Z,34.75
2023-05-10T09:05:37.081Z,27.36
2023-05-10T09:06:37.190Z,27.94
2023-05-10T09:07:37.186Z,39.92
2023-05-10T09:08:37.230Z,47.40
2023-05-10T09:09:37.259Z,51.37
2023-05-10T09:10:37.307Z,54.98
2023-05-10T09:11:37.333Z,57.17
2023-05-10T09:12:37.379Z,60.09
2023-05-10T09:13:37.483Z,62.26
2023-05-10T09:14:37.462Z,60.76
2023-05-10T09:15:37.746Z,63.09
2023-05-10T09:16:37.584Z,63.00
2023-05-10T09:17:37.686Z,61.97
2023-05-10T09:18:37.595Z,61.60
2023-05-10T09:19:37.652Z,61.99
2023-05-10T09:20:37.648Z,60.63
2023-05-10T09:21:37.692Z,65.44
2023-05-10T09:22:37.734Z,64.72
2023-05-10T09:23:37.735Z,63.47
2023-05-10T09:24:37.782Z,64.34
2023-05-10T09:25:37.802Z,63.11
2023-05-10T09:26:37.823Z,64.18
2023-05-10T09:27:37.862Z,66.41
2023-05-10T09:28:37.904Z,66.78
2023-05-10T09:29:37.914Z,64.22
2023-05-10T09:30:37.959Z,66.17
2023-05-10T09:31:37.983Z,63.80
2023-05-10T09:32:38.015Z,67.89
2023-05-10T09:33:37.990Z,64.99
2023-05-10T09:34:38.039Z,63.34
2023-05-10T09:35:38.030Z,64.05
2023-05-10T09:36:38.137Z,61.91
2023-05-10T09:37:38.140Z,62.62
2023-05-10T09:38:38.145Z,65.05
2023-05-10T09:39:38.156Z,61.92
2023-05-10T09:40:38.228Z,64.04
2023-05-10T09:41:38.176Z,68.45
2023-05-10T09:42:38.199Z,67.40
2023-05-10T09:43:38.210Z,65.88
2023-05-10T09:44:38.252Z,64.17
2023-05-10T09:45:39.278Z,67.37
2023-05-10T09:46:38.402Z,71.93
2023-05-10T09:47:38.372Z,70.07
2023-05-10T09:48:38.340Z,70.02
2023-05-10T09:49:38.343Z,68.42
2023-05-10T09:50:38.741Z,70.48
2023-05-10T09:51:38.377Z,64.93
2023-05-10T09:52:38.408Z,71.06
2023-05-10T09:53:38.430Z,66.12
2023-05-10T09:54:38.466Z,67.40
2023-05-10T09:55:38.755Z,63.09
2023-05-10T09:56:39.234Z,65.84
2023-05-10T09:57:38.521Z,69.15
2023-05-10T09:58:38.556Z,65.17
2023-05-10T09:59:38.510Z,68.52
2023-05-10T10:00:38.568Z,67.52
2023-05-10T10:01:38.630Z,70.44
2023-05-10T10:02:38.603Z,68.92
2023-05-10T10:03:38.595Z,66.79
2023-05-10T10:04:38.665Z,65.77
2023-05-10T10:05:38.624Z,70.23
2023-05-10T10:06:38.654Z,57.89
2023-05-10T10:07:38.665Z,59.85
2023-05-10T10:08:38.726Z,58.48
2023-05-10T10:09:38.729Z,65.19
2023-05-10T10:10:38.738Z,64.98
2023-05-10T10:11:38.747Z,62.07
2023-05-10T10:12:38.773Z,66.98
2023-05-10T10:13:38.781Z,68.63
2023-05-10T10:14:38.808Z,70.00
2023-05-10T10:15:39.282Z,72.10
2023-05-10T10:16:48.540Z,74.01
2023-05-10T10:17:39.831Z,74.11
2023-05-10T10:18:38.814Z,72.24
2023-05-10T10:19:38.834Z,71.62
2023-05-10T10:20:39.253Z,61.85
2023-05-10T10:21:38.797Z,67.99
2023-05-10T10:22:38.773Z,68.64
2023-05-10T10:23:38.786Z,70.07
2023-05-10T10:24:38.791Z,72.05
2023-05-10T10:25:39.270Z,72.83
2023-05-10T10:26:38.776Z,72.64
2023-05-10T10:27:38.761Z,71.17
2023-05-10T10:28:38.777Z,73.59
2023-05-10T10:29:38.752Z,73.96
2023-05-10T10:30:39.237Z,74.14
2023-05-10T10:31:38.792Z,72.54
2023-05-10T10:32:38.794Z,75.09
2023-05-10T10:33:38.699Z,74.14
2023-05-10T10:34:38.713Z,74.05
2023-05-10T10:35:38.753Z,75.04
2023-05-10T10:36:38.730Z,73.27
2023-05-10T10:37:38.668Z,72.43
2023-05-10T10:38:38.694Z,75.95
2023-05-10T10:39:38.698Z,73.26
2023-05-10T10:40:38.750Z,74.99
2023-05-10T10:41:38.714Z,74.12
2023-05-10T10:42:38.733Z,75.91
2023-05-10T10:43:38.769Z,72.17
2023-05-10T10:44:38.786Z,73.53
2023-05-10T10:45:40.169Z,72.45
2023-05-10T10:46:38.889Z,76.45
2023-05-10T10:47:38.898Z,77.35
2023-05-10T10:48:38.906Z,73.39
2023-05-10T10:49:38.918Z,75.24
2023-05-10T10:50:39.262Z,75.02
2023-05-10T10:51:38.932Z,74.04
2023-05-10T10:52:38.928Z,74.65
2023-05-10T10:53:38.961Z,72.44
2023-05-10T10:54:38.965Z,75.05
2023-05-10T10:55:39.002Z,80.02
2023-05-10T10:56:39.130Z,76.78
2023-05-10T10:57:39.022Z,79.55
2023-05-10T10:58:39.122Z,79.59
2023-05-10T10:59:39.034Z,76.25
2023-05-10T11:00:39.084Z,73.53
2023-05-10T11:01:39.146Z,74.40
2023-05-10T11:02:39.116Z,74.10
2023-05-10T11:03:39.053Z,63.22
2023-05-10T11:04:39.084Z,70.40
2023-05-10T11:05:39.089Z,72.93
2023-05-10T11:06:39.103Z,74.01
2023-05-10T11:07:39.087Z,72.21
2023-05-10T11:08:39.109Z,74.06
2023-05-10T11:09:39.095Z,74.67
2023-05-10T11:10:39.174Z,80.34
2023-05-10T11:11:39.287Z,81.77
2023-05-10T11:12:39.122Z,80.56
2023-05-10T11:13:39.113Z,81.01
2023-05-10T11:14:39.149Z,79.34
2023-05-10T11:15:39.216Z,80.21
2023-05-10T11:16:39.332Z,77.14
2023-05-10T11:17:39.231Z,70.01
2023-05-10T11:18:39.228Z,61.86
2023-05-10T11:19:39.194Z,68.58
2023-05-10T11:20:39.252Z,68.52
2023-05-10T11:21:39.756Z,70.17
2023-05-10T11:22:39.271Z,71.71
2023-05-10T11:23:39.339Z,71.81
2023-05-10T11:24:39.334Z,73.36
2023-05-10T11:25:39.379Z,73.04
2023-05-10T11:26:39.783Z,68.57
2023-05-10T11:27:39.439Z,70.10
2023-05-10T11:28:39.442Z,70.01
2023-05-10T11:29:39.486Z,66.80
2023-05-10T11:30:39.551Z,63.89
2023-05-10T11:31:39.763Z,65.20
2023-05-10T11:32:39.586Z,61.05
2023-05-10T11:33:39.625Z,63.24
2023-05-10T11:34:39.645Z,67.28
2023-05-10T11:35:42.398Z,69.21
2023-05-10T11:36:39.775Z,74.44
2023-05-10T11:37:39.647Z,70.92
2023-05-10T11:38:39.657Z,72.50
2023-05-10T11:39:39.629Z,72.20
2023-05-10T11:40:39.634Z,73.84
2023-05-10T11:41:40.997Z,73.22
2023-05-10T11:42:39.873Z,73.32
2023-05-10T11:43:39.883Z,73.63
2023-05-10T11:44:39.928Z,73.55
2023-05-10T11:45:39.955Z,74.51
2023-05-10T11:46:40.299Z,74.24
2023-05-10T11:47:42.614Z,76.30
2023-05-10T11:48:40.085Z,77.22
2023-05-10T11:49:39.999Z,76.49
2023-05-10T11:50:40.028Z,77.02
2023-05-10T11:51:40.348Z,78.72
2023-05-10T11:52:39.976Z,77.55
2023-05-10T11:53:39.992Z,79.13
2023-05-10T11:54:39.940Z,74.53
2023-05-10T11:55:39.975Z,75.47
2023-05-10T11:56:40.272Z,75.62
2023-05-10T11:57:39.961Z,73.74
2023-05-10T11:58:39.928Z,76.41
2023-05-10T11:59:42.475Z,75.99
2023-05-10T12:00:40.021Z,76.19
2023-05-10T12:01:39.952Z,76.38
2023-05-10T12:02:40.017Z,76.47
2023-05-10T12:03:40.023Z,77.87
2023-05-10T12:04:39.978Z,78.70
2023-05-10T12:05:42.226Z,79.05
2023-05-10T12:06:40.280Z,79.27
2023-05-10T12:07:39.883Z,79.43
2023-05-10T12:08:39.888Z,78.77
2023-05-10T12:09:44.234Z,77.85
2023-05-10T12:10:39.945Z,79.47
2023-05-10T12:11:41.861Z,79.58
2023-05-10T12:12:39.849Z,79.20
2023-05-10T12:13:39.823Z,79.06
2023-05-10T12:14:39.856Z,79.06
2023-05-10T12:15:39.852Z,81.45
2023-05-10T12:16:39.879Z,79.70
2023-05-10T12:17:41.973Z,79.19
2023-05-10T12:18:39.813Z,79.40
2023-05-10T12:19:39.830Z,79.42
2023-05-10T12:20:39.801Z,79.20
2023-05-10T12:21:40.290Z,79.55
2023-05-10T12:22:39.783Z,77.14
2023-05-10T12:23:39.791Z,78.01
2023-05-10T12:24:39.783Z,76.91
2023-05-10T12:25:39.742Z,74.54
2023-05-10T12:26:39.762Z,78.80
2023-05-10T12:27:39.766Z,76.63
2023-05-10T12:28:39.720Z,77.22
2023-05-10T12:29:41.593Z,75.00
2023-05-10T12:30:39.728Z,75.19
2023-05-10T12:31:39.814Z,75.50
2023-05-10T12:32:39.754Z,74.94
2023-05-10T12:33:39.694Z,73.17
2023-05-10T12:34:39.768Z,77.08
2023-05-10T12:35:41.170Z,76.70
2023-05-10T12:36:39.776Z,76.95
2023-05-10T12:37:39.694Z,77.05
2023-05-10T12:38:39.699Z,77.24
2023-05-10T12:39:39.663Z,75.34
2023-05-10T12:40:39.660Z,77.44
2023-05-10T12:41:41.490Z,76.24
2023-05-10T12:42:39.644Z,76.41
2023-05-10T12:43:39.618Z,76.79
2023-05-10T12:44:39.596Z,76.44
2023-05-10T12:45:39.636Z,75.20
2023-05-10T12:46:39.619Z,73.57
2023-05-10T12:47:42.208Z,73.09
2023-05-10T12:48:39.586Z,73.46
2023-05-10T12:49:39.582Z,73.61
2023-05-10T12:50:39.580Z,73.59
2023-05-10T12:51:39.553Z,73.86
2023-05-10T12:52:39.570Z,73.15